Stations météo

réclame
Mon MeteoGroup
Nidingen, Suède (2518): Température de l'air & dewpoint: 17.09.2018 02:00:00 - 23.09.2018 02:00:00 (CEST)Nidingen, Suède (2518): Vitesse du vent & gusts: 17.09.2018 02:00:00 - 23.09.2018 02:00:00 (CEST)Nidingen, Suède (2518): Direction du vent: 17.09.2018 02:00:00 - 23.09.2018 02:00:00 (CEST)
Date & Time tt [°C] td [°C] ff [km/h] ff [knt] fx [km/h] fx [knt] dd
23.09.2018 02:00:00 12,1 8,4 50 27 68 37 W
23.09.2018 01:00:00 12,3 8,6 46 25 69 37 W
23.09.2018 00:00:00 12,2 8,5 50 27 76 41 W
22.09.2018 23:00:00 12,5 9,0 57 31 76 41 W
22.09.2018 22:00:00 12,6 9,2 49 26 70 38 W
22.09.2018 21:00:00 12,3 8,6 44 24 68 37 WSW
22.09.2018 20:00:00 12,3 8,8 48 26 77 41 WSW
22.09.2018 19:00:00 12,2 8,1 49 26 77 41 WSW
22.09.2018 18:00:00 12,2 6,5 47 25 74 40 WSW
22.09.2018 17:00:00 12,8 6,2 56 30 74 40 W
22.09.2018 16:00:00 13,4 6,5 47 26 71 38 W
22.09.2018 15:00:00 13,6 6,9 42 23 78 42 W
22.09.2018 14:00:00 10,8 6,2 41 22 78 42 W
22.09.2018 13:00:00 12,8 6,6 39 21 75 40 WSW
22.09.2018 12:00:00 12,6 7,5 44 24 69 37 WSW
22.09.2018 11:00:00 13,4 7,2 49 27 67 36 W
22.09.2018 10:00:00 13,1 7,8 47 25 81 44 W
22.09.2018 09:00:00 12,8 7,9 53 29 81 44 W
22.09.2018 08:00:00 12,6 8,3 54 29 86 46 W
22.09.2018 07:00:00 12,8 7,7 61 33 86 46 W
22.09.2018 06:00:00 12,5 7,0 61 33 86 47 W
22.09.2018 05:00:00 12,3 7,2 58 32 86 47 W
22.09.2018 04:00:00 12,3 7,2 61 33 85 46 W
22.09.2018 03:00:00 12,5 7,4 57 31 83 45 W
22.09.2018 02:00:00 12,9 8,0 54 29 81 44 WSW
22.09.2018 01:00:00 12,8 7,9 58 31 81 44 WSW
22.09.2018 00:00:00 - - - - 84 45 -
21.09.2018 23:00:00 12,6 7,5 56 30 91 49 WSW
21.09.2018 22:00:00 12,7 8,2 65 35 92 50 WSW
21.09.2018 21:00:00 13,7 7,9 73 39 92 50 SW
21.09.2018 20:00:00 13,8 8,2 61 33 82 44 SW
21.09.2018 19:00:00 14,4 8,3 59 32 76 41 SW
21.09.2018 18:00:00 14,9 10,5 51 28 74 40 SW
21.09.2018 17:00:00 15,4 10,0 50 27 78 42 SW
21.09.2018 16:00:00 15,8 10,6 53 29 88 47 SW
21.09.2018 15:00:00 16,0 12,7 58 31 88 47 SW
21.09.2018 14:00:00 16,8 14,8 63 34 79 42 SSW
21.09.2018 13:00:00 17,9 14,8 51 27 64 35 S
21.09.2018 12:00:00 17,6 14,3 53 28 64 35 SSE
21.09.2018 11:00:00 17,4 14,7 50 27 67 36 S
21.09.2018 10:00:00 17,2 14,8 52 28 67 36 SSE
21.09.2018 09:00:00 17,0 15,0 47 26 56 30 SSE
21.09.2018 08:00:00 16,8 15,1 44 24 55 30 SSE
21.09.2018 07:00:00 16,9 15,1 42 23 55 30 SSE
21.09.2018 06:00:00 17,1 15,3 44 24 54 29 SSE
21.09.2018 05:00:00 16,8 15,3 43 23 61 33 SSE
21.09.2018 04:00:00 16,8 15,1 43 23 61 33 S
21.09.2018 03:00:00 16,7 15,4 44 24 52 28 S
21.09.2018 02:00:00 16,4 15,3 39 21 51 28 S
21.09.2018 01:00:00 16,0 15,0 39 21 51 27 S
21.09.2018 00:00:00 14,7 14,2 25 13 33 18 S
20.09.2018 23:00:00 14,6 13,5 21 11 24 13 S
20.09.2018 22:00:00 14,7 12,9 19 10 34 18 SSW
20.09.2018 21:00:00 14,7 13,1 17 9 35 19 SSW
20.09.2018 20:00:00 14,6 11,9 30 16 36 19 SW
20.09.2018 19:00:00 14,6 11,9 26 14 39 21 SW
20.09.2018 18:00:00 14,7 10,3 28 15 42 23 SW
20.09.2018 17:00:00 15,2 8,4 33 18 48 26 WSW
20.09.2018 16:00:00 14,5 11,6 29 16 48 26 SW
20.09.2018 15:00:00 15,4 10,2 37 20 47 26 SW
20.09.2018 14:00:00 15,3 11,1 37 20 48 26 SW
20.09.2018 13:00:00 15,2 11,6 35 19 53 28 SW
20.09.2018 12:00:00 15,4 11,0 40 21 53 28 SW
20.09.2018 11:00:00 16,0 12,6 40 21 48 26 SW
20.09.2018 10:00:00 16,0 11,6 32 17 48 26 SW
20.09.2018 09:00:00 15,9 10,2 35 19 49 26 SW
20.09.2018 08:00:00 15,7 10,9 37 20 49 26 WSW
20.09.2018 07:00:00 15,8 11,6 32 17 44 24 SW
20.09.2018 06:00:00 16,0 10,7 32 17 49 27 WSW
20.09.2018 05:00:00 16,4 11,3 30 16 49 27 WSW
20.09.2018 04:00:00 16,0 12,2 29 16 71 39 SW
20.09.2018 03:00:00 15,5 12,4 33 18 71 39 SW
20.09.2018 02:00:00 17,4 15,2 45 24 56 31 SSW
20.09.2018 01:00:00 17,5 14,9 45 24 54 29 SSW
20.09.2018 00:00:00 17,5 14,9 41 22 52 28 SSW
19.09.2018 23:00:00 17,7 14,6 43 23 51 28 SSW
19.09.2018 22:00:00 17,5 15,5 42 23 50 27 SSW
19.09.2018 21:00:00 17,4 15,6 40 22 50 27 S
19.09.2018 20:00:00 17,3 15,6 37 20 52 28 S
19.09.2018 19:00:00 17,3 15,5 40 21 54 29 S
19.09.2018 18:00:00 17,2 15,5 42 23 54 29 S
19.09.2018 17:00:00 16,9 15,6 39 21 51 28 S
19.09.2018 16:00:00 17,0 15,7 36 19 48 26 S
19.09.2018 15:00:00 17,0 15,7 40 22 47 25 S
19.09.2018 14:00:00 17,0 15,7 34 19 42 23 SSW
19.09.2018 13:00:00 17,1 15,8 33 18 42 23 SSW
19.09.2018 12:00:00 17,1 15,8 33 18 39 21 SSW
19.09.2018 11:00:00 17,3 15,6 32 17 38 20 SSW
19.09.2018 10:00:00 16,9 15,6 27 15 35 19 SSW
19.09.2018 09:00:00 16,7 15,4 28 15 37 20 SSW
19.09.2018 08:00:00 16,4 15,3 29 16 37 20 SW
19.09.2018 07:00:00 16,3 15,3 29 15 34 19 SW
19.09.2018 06:00:00 16,4 15,3 27 15 32 17 SSW
19.09.2018 05:00:00 16,5 15,0 23 12 36 19 SW
19.09.2018 04:00:00 16,7 15,2 26 14 36 19 SW
19.09.2018 03:00:00 16,8 15,5 29 16 35 19 SSW
19.09.2018 02:00:00 16,7 15,6 27 14 35 19 S
19.09.2018 01:00:00 16,9 15,8 27 14 34 19 S
19.09.2018 00:00:00 17,1 15,3 29 16 37 20 SSW
18.09.2018 23:00:00 17,3 15,3 29 15 42 23 SSW
18.09.2018 22:00:00 17,6 15,0 31 17 42 23 SW
18.09.2018 21:00:00 18,0 14,9 32 17 40 22 SW
18.09.2018 20:00:00 17,7 15,0 32 17 46 25 S
18.09.2018 19:00:00 17,9 15,0 34 18 46 25 S
18.09.2018 18:00:00 18,5 14,4 41 22 46 25 SSE
18.09.2018 17:00:00 18,4 14,7 38 20 45 25 SSE
18.09.2018 16:00:00 18,1 14,8 36 20 46 25 SSE
18.09.2018 15:00:00 18,1 14,8 36 20 46 25 SSE
18.09.2018 14:00:00 17,6 14,9 35 19 45 24 SSE
18.09.2018 13:00:00 17,2 15,0 36 19 42 23 SSE
18.09.2018 12:00:00 17,0 15,0 30 16 42 23 SSE
18.09.2018 11:00:00 17,0 14,6 34 18 42 23 S
18.09.2018 10:00:00 16,8 14,6 33 18 39 21 S
18.09.2018 09:00:00 16,6 14,8 30 16 39 21 S
18.09.2018 08:00:00 16,3 15,2 32 18 38 20 S
18.09.2018 07:00:00 16,3 15,3 31 17 38 20 S
18.09.2018 06:00:00 16,2 15,4 32 17 36 19 SSW
18.09.2018 05:00:00 16,3 15,2 24 13 35 19 S
18.09.2018 04:00:00 16,4 15,4 29 16 35 19 SSW
18.09.2018 03:00:00 16,3 15,3 24 13 29 16 SSW
18.09.2018 02:00:00 16,4 15,4 24 13 34 18 SSW
18.09.2018 01:00:00 16,4 15,4 23 12 34 18 SSW
18.09.2018 00:00:00 16,5 15,5 29 15 37 20 SSW
17.09.2018 23:00:00 15,8 14,3 25 14 37 20 SSE
17.09.2018 22:00:00 15,7 13,2 27 14 30 16 SSE
17.09.2018 21:00:00 15,7 13,2 20 11 27 15 SSE
17.09.2018 20:00:00 15,6 14,2 20 11 27 15 S
17.09.2018 19:00:00 15,5 12,6 20 11 23 12 S
17.09.2018 18:00:00 15,4 12,0 15 8 21 11 S
17.09.2018 17:00:00 15,8 12,5 17 9 21 11 SSW
17.09.2018 16:00:00 16,0 11,6 13 7 19 10 SW
17.09.2018 15:00:00 16,9 11,4 11 6 27 15 W
17.09.2018 14:00:00 16,4 11,5 16 8 31 17 W
17.09.2018 13:00:00 16,2 11,6 20 11 36 19 W
17.09.2018 12:00:00 15,9 10,9 25 14 40 22 W
17.09.2018 11:00:00 15,3 11,1 28 15 48 26 W
17.09.2018 10:00:00 15,0 11,2 32 18 50 27 W
17.09.2018 09:00:00 15,2 11,4 37 20 52 28 W
17.09.2018 08:00:00 15,0 11,6 42 23 52 28 W
17.09.2018 07:00:00 15,3 11,5 34 18 51 28 W
17.09.2018 06:00:00 15,5 12,8 29 16 41 22 WSW
17.09.2018 05:00:00 15,6 12,5 24 13 45 24 WSW
17.09.2018 04:00:00 15,7 14,6 29 16 49 27 WSW
17.09.2018 03:00:00 15,8 14,8 35 19 53 29 SW
17.09.2018 02:00:00 15,6 14,8 40 22 54 29 SW

tt = Température de l'air
td = dewpoint
ff = Vitesse du vent
fx = gusts
dd = Direction du vent

stations d'obs. à proximité